This is the latest recevied weather packets stored in our database for station/object DL1AIE-13. If no packets are shown the sender has not sent any weather packets the latest 10 day(s).
| Time | Temp. | Humidity | Pressure | Rain* | Wind** | Luminosity | Snow |
|---|---|---|---|---|---|---|---|
| 1777662736 | 16.11° C | 53% | 1024 hPa | 0 mm | - | - | - |
| 1777662153 | 16.67° C | 51% | 1024.1 hPa | 0 mm | - | - | - |
| 1777661549 | 17.78° C | 47% | 1024 hPa | 0 mm | - | - | - |
| 1777660946 | 18.89° C | 44% | 1024 hPa | 0 mm | - | - | - |
| 1777660342 | 20° C | 41% | 1023.9 hPa | 0 mm | - | - | - |
| 1777659739 | 20.56° C | 38% | 1023.9 hPa | 0 mm | - | - | - |
| 1777659155 | 21.11° C | 37% | 1023.8 hPa | 0 mm | - | - | - |
| 1777658552 | 21.11° C | 37% | 1023.8 hPa | 0 mm | - | - | - |
| 1777657949 | 21.67° C | 37% | 1023.8 hPa | 0 mm | - | - | - |
| 1777657348 | 21.67° C | 36% | 1023.7 hPa | 0 mm | - | - | - |
| 1777656741 | 21.67° C | 35% | 1023.7 hPa | 0 mm | - | - | - |
| 1777656139 | 22.22° C | 35% | 1023.8 hPa | 0 mm | - | - | - |
| 1777655554 | 22.22° C | 35% | 1023.8 hPa | 0 mm | - | - | - |
| 1777654950 | 22.22° C | 35% | 1023.9 hPa | 0 mm | - | - | - |
| 1777654347 | 22.22° C | 34% | 1024 hPa | 0 mm | - | - | - |
| 1777653744 | 22.78° C | 34% | 1024.2 hPa | 0 mm | - | - | - |
| 1777653140 | 22.78° C | 33% | 1024.2 hPa | 0 mm | - | - | - |
| 1777652536 | 22.78° C | 33% | 1024.3 hPa | 0 mm | - | - | - |
| 1777651952 | 22.78° C | 33% | 1024.4 hPa | 0 mm | - | - | - |
| 1777651351 | 22.22° C | 32% | 1024.5 hPa | 0 mm | - | - | - |
| 1777650745 | 22.78° C | 32% | 1024.6 hPa | 0 mm | - | - | - |
| 1777650141 | 22.78° C | 32% | 1024.7 hPa | 0 mm | - | - | - |
| 1777649537 | 22.22° C | 33% | 1024.7 hPa | 0 mm | - | - | - |
| 1777648954 | 22.78° C | 33% | 1024.7 hPa | 0 mm | - | - | - |
| 1777648353 | 22.22° C | 32% | 1024.7 hPa | 0 mm | - | - | - |
* Rain latest hour (hover to see other rain measurements)
** Current wind speed in m/s (hover to see current wind gust speed)